createdAt,value
2022-09-20T00:02:01.674Z,2.78
2022-09-20T00:04:28.137Z,2.45
2022-09-20T00:06:54.733Z,2.40
2022-09-20T00:09:21.203Z,2.97
2022-09-20T00:11:47.656Z,3.05
2022-09-20T00:14:14.122Z,3.53
2022-09-20T00:16:41.647Z,2.83
2022-09-20T00:19:16.961Z,3.50
2022-09-20T00:21:43.405Z,3.33
2022-09-20T00:24:10.662Z,3.35
2022-09-20T00:26:37.091Z,3.30
2022-09-20T00:29:05.226Z,3.28
2022-09-20T00:31:32.219Z,2.80
2022-09-20T00:34:17.556Z,2.80
2022-09-20T00:36:44.716Z,3.15
2022-09-20T00:39:13.812Z,3.65
2022-09-20T00:41:40.256Z,3.70
2022-09-20T00:44:40.828Z,2.90
2022-09-20T00:47:14.056Z,2.83
2022-09-20T00:49:40.820Z,3.35
2022-09-20T00:52:07.909Z,3.72
2022-09-20T00:54:34.534Z,3.70
2022-09-20T00:57:01.161Z,4.07
2022-09-20T00:59:34.712Z,3.47
2022-09-20T01:02:39.369Z,3.15
2022-09-20T01:05:09.317Z,3.90
2022-09-20T01:07:36.873Z,3.75
2022-09-20T01:10:03.540Z,3.40
2022-09-20T01:12:34.552Z,3.05
2022-09-20T01:15:04.305Z,3.35
2022-09-20T01:17:34.659Z,3.28
2022-09-20T01:20:29.241Z,3.60
2022-09-20T01:23:20.525Z,3.08
2022-09-20T01:26:05.690Z,3.33
2022-09-20T01:28:32.581Z,4.20
2022-09-20T01:31:29.077Z,3.35
2022-09-20T01:34:00.764Z,3.60
2022-09-20T01:36:37.916Z,3.10
2022-09-20T01:39:23.056Z,3.20
2022-09-20T01:42:02.000Z,3.92
2022-09-20T01:44:51.241Z,3.92
2022-09-20T01:47:54.674Z,3.50
2022-09-20T01:50:35.153Z,3.40
2022-09-20T01:53:04.377Z,3.00
2022-09-20T01:56:08.169Z,3.58
2022-09-20T01:59:23.315Z,3.10
2022-09-20T02:02:09.894Z,3.70
2022-09-20T02:05:09.984Z,3.33
2022-09-20T02:08:01.536Z,3.72
2022-09-20T02:10:57.983Z,3.33
2022-09-20T02:13:27.684Z,3.58
2022-09-20T02:16:24.442Z,3.63
2022-09-20T02:19:03.004Z,3.28
2022-09-20T02:21:52.791Z,3.57
2022-09-20T02:24:41.133Z,3.40
2022-09-20T02:27:46.328Z,3.30
2022-09-20T02:30:36.984Z,3.63
2022-09-20T02:33:34.372Z,3.42
2022-09-20T02:36:17.449Z,3.83
2022-09-20T02:39:16.512Z,3.50
2022-09-20T02:42:01.321Z,3.38
2022-09-20T02:44:59.264Z,3.42
2022-09-20T02:47:36.628Z,3.83
2022-09-20T02:50:15.188Z,3.75
2022-09-20T02:53:09.498Z,3.43
2022-09-20T02:55:40.690Z,3.50
2022-09-20T02:58:28.824Z,3.35
2022-09-20T03:01:09.930Z,3.13
2022-09-20T03:03:56.544Z,3.20
2022-09-20T03:06:33.910Z,3.83
2022-09-20T03:09:33.837Z,3.90
2022-09-20T03:12:11.353Z,3.63
2022-09-20T03:14:45.404Z,3.50
2022-09-20T03:17:20.771Z,3.08
2022-09-20T03:20:08.411Z,3.67
2022-09-20T03:22:58.073Z,3.13
2022-09-20T03:25:36.778Z,4.03
2022-09-20T03:28:12.130Z,3.30
2022-09-20T03:31:09.637Z,3.83
2022-09-20T03:33:48.103Z,3.03
2022-09-20T03:36:35.957Z,3.53
2022-09-20T03:39:02.320Z,3.60
2022-09-20T03:41:36.140Z,3.03
2022-09-20T03:44:02.669Z,3.80
2022-09-20T03:46:37.119Z,3.58
2022-09-20T03:49:22.384Z,3.20
2022-09-20T03:52:14.137Z,3.35
2022-09-20T03:55:08.577Z,3.33
2022-09-20T03:58:13.581Z,3.13
2022-09-20T04:01:03.591Z,3.35
2022-09-20T04:04:08.256Z,2.97
2022-09-20T04:06:52.369Z,2.80
2022-09-20T04:09:40.197Z,3.28
2022-09-20T04:12:20.931Z,3.17
2022-09-20T04:15:02.900Z,3.58
2022-09-20T04:17:51.192Z,2.70
2022-09-20T04:20:32.157Z,3.08
2022-09-20T04:23:05.520Z,3.35
2022-09-20T04:25:44.380Z,3.20
2022-09-20T04:28:27.118Z,2.55
2022-09-20T04:31:02.669Z,2.88
2022-09-20T04:33:36.529Z,3.08
2022-09-20T04:36:30.657Z,2.45
2022-09-20T04:39:28.184Z,2.78
2022-09-20T04:42:23.969Z,2.60
2022-09-20T04:45:10.362Z,4.00
2022-09-20T04:48:06.614Z,2.70
2022-09-20T04:50:47.012Z,2.90
2022-09-20T04:53:50.935Z,2.60
2022-09-20T04:56:22.074Z,2.60
2022-09-20T04:58:56.593Z,2.53
2022-09-20T05:02:03.560Z,2.67
2022-09-20T05:04:48.956Z,2.97
2022-09-20T05:07:33.564Z,2.63
2022-09-20T05:10:29.108Z,2.60
2022-09-20T05:13:27.579Z,2.83
2022-09-20T05:16:02.320Z,2.58
2022-09-20T05:18:50.874Z,2.40
2022-09-20T05:21:43.510Z,2.77
2022-09-20T05:24:43.244Z,2.50
2022-09-20T05:27:29.102Z,2.83
2022-09-20T05:30:04.829Z,2.70
2022-09-20T05:32:51.825Z,3.00
2022-09-20T05:35:29.369Z,2.92
2022-09-20T05:37:55.868Z,2.83
2022-09-20T05:40:33.429Z,2.92
2022-09-20T05:43:08.713Z,3.72
2022-09-20T05:45:50.040Z,2.97
2022-09-20T05:48:37.573Z,3.15
2022-09-20T05:51:21.921Z,3.83
2022-09-20T05:54:07.733Z,3.78
2022-09-20T05:56:58.865Z,4.05
2022-09-20T05:59:45.140Z,4.10
2022-09-20T06:02:39.331Z,4.40
2022-09-20T06:05:15.656Z,4.30
2022-09-20T06:08:00.705Z,4.38
2022-09-20T06:10:37.064Z,4.75
2022-09-20T06:13:22.640Z,5.25
2022-09-20T06:16:04.476Z,5.38
2022-09-20T06:18:43.438Z,5.38
2022-09-20T06:21:38.876Z,5.85
2022-09-20T06:24:21.754Z,5.28
2022-09-20T06:26:53.956Z,5.63
2022-09-20T06:29:29.521Z,5.72
2022-09-20T06:31:56.316Z,4.82
2022-09-20T06:34:23.463Z,5.57
2022-09-20T06:37:23.123Z,5.82
2022-09-20T06:40:12.535Z,5.57
2022-09-20T06:45:05.854Z,5.85
2022-09-20T06:47:35.666Z,6.22
2022-09-20T06:50:06.325Z,6.60
2022-09-20T06:52:34.447Z,6.20
2022-09-20T06:55:01.976Z,6.75
2022-09-20T06:57:36.038Z,6.72
2022-09-20T07:00:02.685Z,7.45
2022-09-20T07:02:29.213Z,7.13
2022-09-20T07:04:57.341Z,7.38
2022-09-20T07:07:23.920Z,7.10
2022-09-20T07:09:51.137Z,7.47
2022-09-20T07:12:18.096Z,6.43
2022-09-20T07:14:44.572Z,6.85
2022-09-20T07:17:11.152Z,6.97
2022-09-20T07:19:37.656Z,6.93
2022-09-20T07:22:04.129Z,6.55
2022-09-20T07:24:33.280Z,7.15
2022-09-20T07:27:02.207Z,6.65
2022-09-20T07:29:29.368Z,7.05
2022-09-20T07:31:56.729Z,6.85
2022-09-20T07:34:23.937Z,5.97
2022-09-20T07:36:51.209Z,7.15
2022-09-20T07:39:18.189Z,6.28
2022-09-20T07:41:48.284Z,6.20
2022-09-20T07:44:21.351Z,6.40
2022-09-20T07:46:49.207Z,6.18
2022-09-20T07:49:15.695Z,5.93
2022-09-20T07:51:42.535Z,5.93
2022-09-20T07:54:09.104Z,5.95
2022-09-20T07:56:36.124Z,5.05
2022-09-20T07:59:02.611Z,6.10
2022-09-20T08:01:29.354Z,5.57
2022-09-20T08:03:56.924Z,4.72
2022-09-20T08:06:23.797Z,4.05
2022-09-20T08:08:51.523Z,3.97
2022-09-20T08:11:22.261Z,5.18
2022-09-20T08:14:08.093Z,3.55
2022-09-20T08:16:43.859Z,3.00
2022-09-20T08:19:18.581Z,3.55
2022-09-20T08:21:45.554Z,2.70
2022-09-20T08:24:12.893Z,2.67
2022-09-20T08:26:39.653Z,3.00
2022-09-20T08:29:06.479Z,2.35
2022-09-20T08:31:37.155Z,2.38
2022-09-20T08:34:06.396Z,2.30
2022-09-20T08:36:36.765Z,2.90
2022-09-20T08:42:22.068Z,3.25
2022-09-20T08:45:05.235Z,2.17
2022-09-20T08:47:36.492Z,2.10
2022-09-20T08:50:11.450Z,3.00
2022-09-20T08:52:40.073Z,2.85
2022-09-20T08:55:19.324Z,2.00
2022-09-20T08:57:51.905Z,2.03
2022-09-20T09:00:21.596Z,2.70
2022-09-20T09:02:53.878Z,2.42
2022-09-20T09:05:40.808Z,1.85
2022-09-20T09:08:18.976Z,2.35
2022-09-20T09:10:53.977Z,2.22
2022-09-20T09:13:42.337Z,2.33
2022-09-20T09:16:22.501Z,2.03
2022-09-20T09:18:51.631Z,1.85
2022-09-20T09:21:21.887Z,2.17
2022-09-20T09:23:57.753Z,1.90
2022-09-20T09:26:25.785Z,2.05
2022-09-20T09:29:24.854Z,2.13
2022-09-20T09:31:54.383Z,1.77
2022-09-20T09:36:55.752Z,1.60
2022-09-20T09:39:40.400Z,2.10
2022-09-20T09:42:21.853Z,1.88
2022-09-20T09:44:50.260Z,2.53
2022-09-20T09:47:28.042Z,2.40
2022-09-20T09:50:02.674Z,2.20
2022-09-20T09:52:33.262Z,1.92
2022-09-20T09:55:04.666Z,2.22
2022-09-20T09:57:44.410Z,2.03
2022-09-20T10:00:21.362Z,2.03
2022-09-20T10:03:12.925Z,2.08
2022-09-20T10:06:03.921Z,1.80
2022-09-20T10:08:42.504Z,2.00
2022-09-20T10:11:30.121Z,1.40
2022-09-20T10:14:06.230Z,2.30
2022-09-20T10:16:51.301Z,1.45
2022-09-20T10:19:22.965Z,1.80
2022-09-20T10:22:10.956Z,1.67
2022-09-20T10:24:54.883Z,1.85
2022-09-20T10:27:45.230Z,1.98
2022-09-20T10:30:22.335Z,2.05
2022-09-20T10:32:56.914Z,2.30
2022-09-20T10:35:30.699Z,2.10
2022-09-20T10:38:12.865Z,1.95
2022-09-20T10:41:20.148Z,1.40
2022-09-20T10:44:07.684Z,1.52
2022-09-20T10:47:07.484Z,1.45
2022-09-20T10:49:52.825Z,1.50
2022-09-20T10:52:40.554Z,1.50
2022-09-20T10:55:25.170Z,1.50
2022-09-20T10:58:31.500Z,1.33
2022-09-20T11:01:06.821Z,1.65
2022-09-20T11:04:02.667Z,1.70
2022-09-20T11:06:55.628Z,2.00
2022-09-20T11:09:26.940Z,1.92
2022-09-20T11:12:15.305Z,1.85
2022-09-20T11:14:48.287Z,1.73
2022-09-20T11:17:17.442Z,1.55
2022-09-20T11:19:53.015Z,1.77
2022-09-20T11:22:43.845Z,2.05
2022-09-20T11:25:27.325Z,1.88
2022-09-20T11:28:25.535Z,2.90
2022-09-20T11:31:43.626Z,1.20
2022-09-20T11:34:25.594Z,1.83
2022-09-20T11:37:01.511Z,2.20
2022-09-20T11:39:35.638Z,1.90
2022-09-20T11:42:05.092Z,2.08
2022-09-20T11:44:31.814Z,2.03
2022-09-20T11:47:02.518Z,1.60
2022-09-20T11:49:38.363Z,2.00
2022-09-20T11:52:17.202Z,2.08
2022-09-20T11:55:03.465Z,1.70
2022-09-20T11:57:30.504Z,1.90
2022-09-20T12:00:03.227Z,1.70
2022-09-20T12:02:43.050Z,1.63
2022-09-20T12:05:33.544Z,1.80
2022-09-20T12:08:04.001Z,1.98
2022-09-20T12:10:37.700Z,1.88
2022-09-20T12:13:06.833Z,1.55
2022-09-20T12:15:38.973Z,1.95
2022-09-20T12:18:12.334Z,1.40
2022-09-20T12:20:38.779Z,1.80
2022-09-20T12:23:40.757Z,1.38
2022-09-20T12:26:20.265Z,1.35
2022-09-20T12:31:20.030Z,1.17
2022-09-20T12:34:03.013Z,0.82
2022-09-20T12:36:55.648Z,1.30
2022-09-20T12:39:51.591Z,1.05
2022-09-20T12:42:33.036Z,0.80
2022-09-20T12:45:15.511Z,0.90
2022-09-20T12:47:55.709Z,0.88
2022-09-20T12:50:41.793Z,1.25
2022-09-20T12:53:16.591Z,1.13
2022-09-20T12:55:55.186Z,1.02
2022-09-20T12:58:38.620Z,1.50
2022-09-20T13:01:05.008Z,1.15
2022-09-20T13:03:36.620Z,1.10
2022-09-20T13:06:06.073Z,0.98
2022-09-20T13:08:42.684Z,1.00
2022-09-20T13:11:38.323Z,0.80
2022-09-20T13:14:07.664Z,1.30
2022-09-20T13:16:56.535Z,1.17
2022-09-20T13:19:32.440Z,1.17
2022-09-20T13:22:17.521Z,1.42
2022-09-20T13:24:47.593Z,1.30
2022-09-20T13:27:22.672Z,1.33
2022-09-20T13:29:49.288Z,1.58
2022-09-20T13:32:18.707Z,1.45
2022-09-20T13:34:48.112Z,1.70
2022-09-20T13:37:21.662Z,1.50
2022-09-20T13:39:54.404Z,1.80
2022-09-20T13:42:21.252Z,1.83
2022-09-20T13:44:48.369Z,1.95
2022-09-20T13:47:29.949Z,1.65
2022-09-20T13:50:02.095Z,1.75
2022-09-20T13:52:31.338Z,1.73
2022-09-20T13:54:57.768Z,2.58
2022-09-20T13:57:31.295Z,2.38
2022-09-20T13:59:58.702Z,2.53
2022-09-20T14:02:32.277Z,1.35
2022-09-20T14:05:05.004Z,2.05
2022-09-20T14:07:32.684Z,1.95
2022-09-20T14:10:00.085Z,1.60
2022-09-20T14:12:27.670Z,2.08
2022-09-20T14:14:55.115Z,1.15
2022-09-20T14:17:24.447Z,1.38
2022-09-20T14:19:54.383Z,1.45
2022-09-20T14:22:26.260Z,1.20
2022-09-20T14:25:01.839Z,2.47
2022-09-20T14:27:30.958Z,1.30
2022-09-20T14:29:57.695Z,1.33
2022-09-20T14:32:37.374Z,1.23
2022-09-20T14:35:19.622Z,1.25
2022-09-20T14:37:55.284Z,1.10
2022-09-20T14:40:33.306Z,1.20
2022-09-20T14:43:01.534Z,1.17
2022-09-20T14:45:30.395Z,1.27
2022-09-20T14:48:11.412Z,0.82
2022-09-20T14:50:43.644Z,1.10
2022-09-20T14:53:11.004Z,0.90
2022-09-20T14:55:39.622Z,1.40
2022-09-20T14:58:13.913Z,1.23
2022-09-20T15:01:04.938Z,1.20
2022-09-20T15:03:42.663Z,1.50
2022-09-20T15:06:39.866Z,1.13
2022-09-20T15:09:06.415Z,0.98
2022-09-20T15:11:33.112Z,1.33
2022-09-20T15:13:59.651Z,1.63
2022-09-20T15:16:28.188Z,1.67
2022-09-20T15:18:54.841Z,1.33
2022-09-20T15:21:21.710Z,1.25
2022-09-20T15:23:48.426Z,1.42
2022-09-20T15:26:15.833Z,0.90
2022-09-20T15:28:42.292Z,1.00
2022-09-20T15:31:10.006Z,1.27
2022-09-20T15:33:36.477Z,1.42
2022-09-20T15:36:03.714Z,0.93
2022-09-20T15:38:30.515Z,1.50
2022-09-20T15:41:00.473Z,0.80
2022-09-20T15:43:28.188Z,1.30
2022-09-20T15:45:57.642Z,1.20
2022-09-20T15:48:26.339Z,1.50
2022-09-20T15:51:19.288Z,1.17
2022-09-20T15:53:53.830Z,1.20
2022-09-20T15:56:23.366Z,1.45
2022-09-20T16:01:19.260Z,1.15
2022-09-20T16:03:46.652Z,1.17
2022-09-20T16:06:13.726Z,1.30
2022-09-20T16:08:42.575Z,1.50
2022-09-20T16:11:13.667Z,1.23
2022-09-20T16:13:40.160Z,1.30
2022-09-20T16:16:09.735Z,1.25
2022-09-20T16:21:21.481Z,1.60
2022-09-20T16:23:56.274Z,1.58
2022-09-20T16:26:25.349Z,1.20
2022-09-20T16:28:52.916Z,1.20
2022-09-20T16:31:40.607Z,1.30
2022-09-20T16:34:11.660Z,1.30
2022-09-20T16:36:38.753Z,1.35
2022-09-20T16:39:05.169Z,1.50
2022-09-20T16:41:32.266Z,1.25
2022-09-20T16:43:58.665Z,1.27
2022-09-20T16:46:29.205Z,1.13
2022-09-20T16:48:56.802Z,1.20
2022-09-20T16:51:25.768Z,1.23
2022-09-20T16:53:55.937Z,1.42
2022-09-20T16:56:25.266Z,1.02
2022-09-20T16:58:52.518Z,1.02
2022-09-20T17:01:19.375Z,1.20
2022-09-20T17:03:47.020Z,1.15
2022-09-20T17:06:15.561Z,1.20
2022-09-20T17:08:44.581Z,1.52
2022-09-20T17:11:23.450Z,1.23
2022-09-20T17:13:52.781Z,1.17
2022-09-20T17:16:22.625Z,0.60
2022-09-20T17:19:13.327Z,0.93
2022-09-20T17:21:43.584Z,1.15
2022-09-20T17:24:10.135Z,0.85
2022-09-20T17:26:41.792Z,0.90
2022-09-20T17:29:10.376Z,1.10
2022-09-20T17:31:39.285Z,1.93
2022-09-20T17:34:08.373Z,1.45
2022-09-20T17:36:40.277Z,0.88
2022-09-20T17:39:13.638Z,1.27
2022-09-20T17:41:41.920Z,1.17
2022-09-20T17:44:09.865Z,0.98
2022-09-20T17:46:38.199Z,1.60
2022-09-20T17:49:07.290Z,1.10
2022-09-20T17:51:44.735Z,1.23
2022-09-20T17:54:15.353Z,1.30
2022-09-20T17:56:44.026Z,1.10
2022-09-20T17:59:11.475Z,1.27
2022-09-20T18:01:38.826Z,1.73
2022-09-20T18:04:06.721Z,1.20
2022-09-20T18:06:35.371Z,1.08
2022-09-20T18:09:04.446Z,1.23
2022-09-20T18:11:38.052Z,1.23
2022-09-20T18:14:06.587Z,1.42
2022-09-20T18:16:34.866Z,1.20
2022-09-20T18:19:01.764Z,1.23
2022-09-20T18:21:30.354Z,1.55
2022-09-20T18:23:57.335Z,1.10
2022-09-20T18:26:26.818Z,1.35
2022-09-20T18:31:27.203Z,1.38
2022-09-20T18:33:55.454Z,1.77
2022-09-20T18:36:25.492Z,1.30
2022-09-20T18:38:55.608Z,1.50
2022-09-20T18:41:27.180Z,1.52
2022-09-20T18:43:55.418Z,1.42
2022-09-20T18:46:25.028Z,2.17
2022-09-20T18:48:53.188Z,1.30
2022-09-20T18:51:20.541Z,1.80
2022-09-20T18:53:48.008Z,1.48
2022-09-20T18:56:32.805Z,1.42
2022-09-20T18:59:02.580Z,1.65
2022-09-20T19:01:41.151Z,1.70
2022-09-20T19:04:25.949Z,1.57
2022-09-20T19:07:36.037Z,2.10
2022-09-20T19:10:38.025Z,1.52
2022-09-20T19:13:08.225Z,1.80
2022-09-20T19:15:40.042Z,1.80
2022-09-20T19:18:24.671Z,1.83
2022-09-20T19:21:27.062Z,2.00
2022-09-20T19:24:11.766Z,2.85
2022-09-20T19:26:39.058Z,3.45
2022-09-20T19:29:18.277Z,2.70
2022-09-20T19:31:47.761Z,2.90
2022-09-20T19:34:19.791Z,2.50
2022-09-20T19:37:01.584Z,2.22
2022-09-20T19:39:45.283Z,2.90
2022-09-20T19:42:36.386Z,1.80
2022-09-20T19:45:31.584Z,1.90
2022-09-20T19:48:09.906Z,1.92
2022-09-20T19:50:46.291Z,2.25
2022-09-20T19:53:14.974Z,2.53
2022-09-20T19:55:47.035Z,2.60
2022-09-20T19:58:14.543Z,2.78
2022-09-20T20:00:44.939Z,2.13
2022-09-20T20:03:13.508Z,2.53
2022-09-20T20:05:51.135Z,2.35
2022-09-20T20:08:32.965Z,2.28
2022-09-20T20:11:20.688Z,2.63
2022-09-20T20:14:18.115Z,2.42
2022-09-20T20:16:55.276Z,2.08
2022-09-20T20:19:31.643Z,2.00
2022-09-20T20:22:21.195Z,2.05
2022-09-20T20:27:19.662Z,2.10
2022-09-20T20:29:46.224Z,2.33
2022-09-20T20:32:12.749Z,2.05
2022-09-20T20:34:39.173Z,2.58
2022-09-20T20:37:06.463Z,2.33
2022-09-20T20:39:33.446Z,2.30
2022-09-20T20:42:02.584Z,1.70
2022-09-20T20:44:30.198Z,2.70
2022-09-20T20:46:57.193Z,2.05
2022-09-20T20:49:24.584Z,2.58
2022-09-20T20:51:51.056Z,2.28
2022-09-20T20:54:17.580Z,2.63
2022-09-20T20:56:44.053Z,2.50
2022-09-20T20:59:10.492Z,2.28
2022-09-20T21:01:39.480Z,2.47
2022-09-20T21:04:08.795Z,2.92
2022-09-20T21:06:37.229Z,2.20
2022-09-20T21:09:08.426Z,1.95
2022-09-20T21:11:37.392Z,1.88
2022-09-20T21:14:07.107Z,2.90
2022-09-20T21:16:36.043Z,2.03
2022-09-20T21:19:04.400Z,1.90
2022-09-20T21:21:33.676Z,2.30
2022-09-20T21:24:05.490Z,1.80
2022-09-20T21:26:33.239Z,2.00
2022-09-20T21:29:02.292Z,2.22
2022-09-20T21:31:31.204Z,2.10
2022-09-20T21:33:58.281Z,2.58
2022-09-20T21:36:27.981Z,2.17
2022-09-20T21:38:54.912Z,2.17
2022-09-20T21:41:32.045Z,2.15
2022-09-20T21:44:03.047Z,2.50
2022-09-20T21:46:32.267Z,2.50
2022-09-20T21:49:01.304Z,1.95
2022-09-20T21:51:31.051Z,2.58
2022-09-20T21:53:59.504Z,2.83
2022-09-20T21:56:28.417Z,2.60
2022-09-20T21:58:55.141Z,2.35
2022-09-20T22:01:23.833Z,3.35
2022-09-20T22:04:00.725Z,2.30
2022-09-20T22:06:31.034Z,2.42
2022-09-20T22:09:03.149Z,2.60
2022-09-20T22:11:32.523Z,2.80
2022-09-20T22:13:59.214Z,2.72
2022-09-20T22:16:27.017Z,2.67
2022-09-20T22:18:53.998Z,2.55
2022-09-20T22:21:23.703Z,2.33
2022-09-20T22:23:58.601Z,2.83
2022-09-20T22:26:31.016Z,2.20
2022-09-20T22:28:58.212Z,2.38
2022-09-20T22:31:27.222Z,2.47
2022-09-20T22:33:56.657Z,2.50
2022-09-20T22:36:25.990Z,2.70
2022-09-20T22:38:53.591Z,2.08
2022-09-20T22:41:20.809Z,2.60
2022-09-20T22:43:47.585Z,2.38
2022-09-20T22:46:15.963Z,2.50
2022-09-20T22:48:43.386Z,2.78
2022-09-20T22:51:18.417Z,3.63
2022-09-20T22:53:45.993Z,3.05
2022-09-20T22:56:15.985Z,2.53
2022-09-20T22:58:47.108Z,3.10
2022-09-20T23:01:20.587Z,2.40
2022-09-20T23:03:52.918Z,2.47
2022-09-20T23:06:25.912Z,2.60
2022-09-20T23:08:55.233Z,2.83
2022-09-20T23:11:22.045Z,3.28
2022-09-20T23:13:54.700Z,3.47
2022-09-20T23:16:23.886Z,3.17
2022-09-20T23:18:51.977Z,2.92
2022-09-20T23:21:19.228Z,2.67
2022-09-20T23:23:47.028Z,2.83
2022-09-20T23:26:17.006Z,2.67
2022-09-20T23:28:45.956Z,6.53
2022-09-20T23:31:15.069Z,4.97
2022-09-20T23:33:48.885Z,3.28
2022-09-20T23:36:16.289Z,2.83
2022-09-20T23:38:43.292Z,3.22
2022-09-20T23:41:13.804Z,2.85
2022-09-20T23:43:41.604Z,2.92
2022-09-20T23:46:09.762Z,3.05
2022-09-20T23:48:37.091Z,2.53
2022-09-20T23:51:07.265Z,2.92
2022-09-20T23:53:34.029Z,3.65
2022-09-20T23:56:00.959Z,2.83
2022-09-20T23:58:27.508Z,2.88
